Time;durP1;ratioP1;P1;durP2;ratioP2;P2;SDS_P1;SDS_P2;PMS_P1;PMS_P2;Temp;Humidity;BMP_temperature;BMP_pressure;BME280_temperature;BME280_humidity;BME280_pressure;Samples;Min_cycle;Max_cycle;Signal;HPM_P1;HPM_P2
2022/11/09 00:01:15;;;;;;;0.08;0.08;;;;;;;12.43;100.00;100432.75;4997869;28;20034;-78
2022/11/09 00:03:41;;;;;;;0.10;0.10;;;;;;;12.30;100.00;100432.16;4998558;28;20049;-85
2022/11/09 00:06:06;;;;;;;0.00;0.00;;;;;;;12.32;100.00;100423.94;4999502;28;20113;-79
2022/11/09 00:08:31;;;;;;;0.10;0.10;;;;;;;12.20;100.00;100418.69;4995174;28;20064;-82
2022/11/09 00:11:10;;;;;;;0.10;0.10;;;;;;;12.18;100.00;100436.81;4993549;28;20033;-80
2022/11/09 00:13:37;;;;;;;0.10;0.10;;;;;;;12.48;100.00;100455.66;4999352;28;20041;-78
2022/11/09 00:16:03;;;;;;;0.00;0.00;;;;;;;12.49;100.00;100457.38;4994241;28;20028;-86
2022/11/09 00:18:29;;;;;;;0.00;0.00;;;;;;;12.42;100.00;100433.72;4993923;28;20034;-76
2022/11/09 00:20:54;;;;;;;0.08;0.08;;;;;;;12.61;100.00;100442.78;4996844;28;20044;-81
2022/11/09 00:23:20;;;;;;;0.00;0.00;;;;;;;12.26;100.00;100410.06;4978308;28;20058;-80
2022/11/09 00:25:49;;;;;;;0.10;0.10;;;;;;;12.38;100.00;100402.69;4991682;28;20491;-78
2022/11/09 00:28:14;;;;;;;0.05;0.05;;;;;;;12.79;100.00;100448.31;4996726;28;20475;-80
2022/11/09 00:30:40;;;;;;;0.10;0.10;;;;;;;12.79;100.00;100442.91;4992264;28;20033;-82
2022/11/09 00:33:05;;;;;;;0.00;0.00;;;;;;;12.65;100.00;100427.19;4996562;28;20021;-81
2022/11/09 00:35:31;;;;;;;0.10;0.10;;;;;;;12.72;100.00;100441.78;4987728;28;20080;-82
2022/11/09 00:37:56;;;;;;;0.10;0.10;;;;;;;12.97;100.00;100439.47;4993070;28;20026;-80
2022/11/09 00:40:22;;;;;;;0.10;0.10;;;;;;;12.71;100.00;100432.00;5001017;28;20037;-82
2022/11/09 00:42:47;;;;;;;0.00;0.00;;;;;;;12.53;100.00;100431.88;4994812;28;20035;-84
2022/11/09 00:45:12;;;;;;;0.00;0.00;;;;;;;12.58;100.00;100424.22;4993177;28;20022;-78
2022/11/09 00:47:38;;;;;;;0.00;0.00;;;;;;;12.64;100.00;100434.44;4992266;28;20034;-77
2022/11/09 00:50:04;;;;;;;0.10;0.10;;;;;;;12.68;100.00;100433.16;4992919;28;20062;-84
2022/11/09 00:52:29;;;;;;;0.10;0.10;;;;;;;12.59;100.00;100431.31;4993709;28;20038;-81
2022/11/09 00:54:55;;;;;;;0.10;0.10;;;;;;;12.67;100.00;100453.00;4991851;28;20520;-78
2022/11/09 00:57:20;;;;;;;0.10;0.10;;;;;;;12.58;100.00;100437.69;4993031;28;20066;-86
2022/11/09 00:59:45;;;;;;;0.10;0.10;;;;;;;12.52;100.00;100428.34;4977113;28;20034;-86
2022/11/09 01:02:11;;;;;;;0.00;0.00;;;;;;;12.73;100.00;100438.94;4996856;28;20036;-83
2022/11/09 01:04:36;;;;;;;0.10;0.10;;;;;;;12.55;100.00;100455.00;4999154;28;20345;-79
2022/11/09 01:07:02;;;;;;;0.10;0.10;;;;;;;12.55;100.00;100438.84;4991003;28;20101;-81
2022/11/09 01:09:27;;;;;;;0.10;0.10;;;;;;;12.30;100.00;100430.34;4994620;28;20030;-84
2022/11/09 01:11:53;;;;;;;0.10;0.10;;;;;;;12.47;100.00;100448.59;4978935;28;20030;-80
2022/11/09 01:14:18;;;;;;;0.00;0.00;;;;;;;12.27;100.00;100413.59;4997368;28;20480;-83
2022/11/09 01:16:44;;;;;;;0.10;0.10;;;;;;;12.17;100.00;100435.13;5007779;28;20550;-84
2022/11/09 01:19:10;;;;;;;0.08;0.08;;;;;;;11.81;100.00;100406.00;4975849;28;20033;-84
2022/11/09 01:21:36;;;;;;;0.10;0.10;;;;;;;11.79;100.00;100424.13;4994391;28;20077;-79
2022/11/09 01:24:02;;;;;;;0.05;0.05;;;;;;;11.95;100.00;100426.28;4980533;28;20044;-79
2022/11/09 01:26:28;;;;;;;0.00;0.00;;;;;;;12.07;100.00;100445.00;4993799;28;20022;-88
2022/11/09 01:28:53;;;;;;;0.08;0.08;;;;;;;12.07;100.00;100453.94;4989155;28;20418;-78
2022/11/09 01:31:20;;;;;;;0.00;0.00;;;;;;;12.20;100.00;100459.06;4995291;28;20037;-76
2022/11/09 01:33:46;;;;;;;0.10;0.10;;;;;;;11.97;100.00;100436.88;4992358;28;20042;-73
2022/11/09 01:36:18;;;;;;;0.00;0.00;;;;;;;12.07;100.00;100461.16;5000864;28;20034;-77
2022/11/09 01:38:44;;;;;;;0.00;0.00;;;;;;;11.78;100.00;100424.28;4984376;28;20060;-84
2022/11/09 01:41:19;;;;;;;0.05;0.05;;;;;;;12.14;100.00;100465.00;4992659;28;20026;-81
2022/11/09 01:44:00;;;;;;;0.00;0.00;;;;;;;12.15;100.00;100451.41;4996918;28;20057;-77
2022/11/09 01:46:39;;;;;;;0.00;0.00;;;;;;;12.26;100.00;100442.38;4997217;28;20038;-74
2022/11/09 01:49:12;;;;;;;0.10;0.10;;;;;;;12.41;100.00;100461.66;4986236;28;20018;-78
2022/11/09 01:51:49;;;;;;;0.10;0.10;;;;;;;12.44;100.00;100457.81;4991032;28;20115;-76
2022/11/09 01:54:18;;;;;;;0.10;0.10;;;;;;;12.68;100.00;100464.59;4996396;28;20107;-72
2022/11/09 01:56:44;;;;;;;0.00;0.00;;;;;;;12.40;100.00;100441.09;4999251;28;20173;-79
2022/11/09 01:59:13;;;;;;;0.10;0.10;;;;;;;12.45;100.00;100456.81;4988457;28;20080;-81
2022/11/09 02:01:39;;;;;;;0.10;0.10;;;;;;;12.17;100.00;100437.81;4990003;28;20045;-80
2022/11/09 02:04:08;;;;;;;0.10;0.10;;;;;;;12.22;100.00;100442.75;5015163;28;20431;-78
2022/11/09 02:06:34;;;;;;;0.08;0.08;;;;;;;11.99;100.00;100441.19;4996301;28;20047;-77
2022/11/09 02:09:11;;;;;;;0.10;0.10;;;;;;;12.00;100.00;100448.28;4998679;28;20101;-79
2022/11/09 02:11:37;;;;;;;0.00;0.00;;;;;;;11.96;100.00;100456.72;4995260;28;20041;-80
2022/11/09 02:14:03;;;;;;;0.00;0.00;;;;;;;12.11;100.00;100452.69;5002306;28;20025;-81
2022/11/09 02:16:28;;;;;;;0.08;0.08;;;;;;;12.03;100.00;100452.50;4992677;28;20183;-79
2022/11/09 02:18:56;;;;;;;0.00;0.00;;;;;;;11.73;100.00;100466.84;4988206;28;20203;-78
2022/11/09 02:21:22;;;;;;;0.03;0.03;;;;;;;11.77;100.00;100474.50;5003600;28;20381;-81
2022/11/09 02:23:48;;;;;;;0.10;0.10;;;;;;;11.65;100.00;100454.94;4986675;28;20450;-76
2022/11/09 02:26:20;;;;;;;0.00;0.00;;;;;;;11.70;100.00;100468.81;5000924;28;20085;-80
2022/11/09 02:28:46;;;;;;;0.00;0.00;;;;;;;11.39;100.00;100450.00;4988505;28;20076;-78
2022/11/09 02:31:13;;;;;;;0.10;0.10;;;;;;;11.55;100.00;100462.09;4996388;28;20026;-77
2022/11/09 02:33:51;;;;;;;0.00;0.00;;;;;;;11.69;100.00;100436.66;4994606;28;20022;-84
2022/11/09 02:36:16;;;;;;;0.10;0.10;;;;;;;11.59;100.00;100442.03;5013040;28;20049;-80
2022/11/09 02:38:43;;;;;;;0.10;0.10;;;;;;;11.76;100.00;100471.97;4996270;28;20065;-84
2022/11/09 02:41:09;;;;;;;0.00;0.00;;;;;;;11.65;100.00;100454.09;4999147;28;20881;-81
2022/11/09 02:43:35;;;;;;;0.00;0.00;;;;;;;11.90;100.00;100476.13;4998320;28;20396;-81
2022/11/09 02:46:01;;;;;;;0.10;0.10;;;;;;;12.00;100.00;100467.09;4998450;28;20030;-75
2022/11/09 02:48:26;;;;;;;0.10;0.10;;;;;;;11.87;100.00;100477.22;4999556;28;20037;-78
2022/11/09 02:50:51;;;;;;;0.00;0.00;;;;;;;11.98;100.00;100444.84;4997202;28;20026;-80
2022/11/09 02:53:17;;;;;;;0.10;0.10;;;;;;;12.20;100.00;100456.38;4998966;28;20460;-75
2022/11/09 02:55:42;;;;;;;0.10;0.10;;;;;;;12.07;100.00;100470.09;4998173;28;20085;-82
2022/11/09 02:58:07;;;;;;;0.00;0.00;;;;;;;11.96;100.00;100454.88;4983079;28;20025;-79
2022/11/09 03:00:33;;;;;;;0.10;0.10;;;;;;;11.91;100.00;100434.78;4987111;28;20034;-77
2022/11/09 03:02:58;;;;;;;0.10;0.10;;;;;;;11.84;100.00;100432.63;4994721;28;20030;-77
2022/11/09 03:05:23;;;;;;;0.10;0.10;;;;;;;11.96;100.00;100436.06;4999484;28;20036;-77
2022/11/09 03:07:49;;;;;;;0.10;0.10;;;;;;;11.92;100.00;100428.41;4994874;28;20068;-77
2022/11/09 03:10:14;;;;;;;0.10;0.10;;;;;;;12.12;100.00;100457.06;4999641;28;20028;-75
2022/11/09 03:12:39;;;;;;;0.00;0.00;;;;;;;12.08;100.00;100442.19;4995407;28;20053;-78
2022/11/09 03:15:07;;;;;;;0.10;0.10;;;;;;;12.30;100.00;100454.56;4988723;28;20034;-76
2022/11/09 03:17:32;;;;;;;0.00;0.00;;;;;;;12.05;100.00;100431.72;4997729;28;20037;-77
2022/11/09 03:19:58;;;;;;;0.10;0.10;;;;;;;12.32;100.00;100445.47;4998743;28;20030;-78
2022/11/09 03:22:23;;;;;;;0.10;0.10;;;;;;;12.40;100.00;100435.72;4990685;28;20038;-75
2022/11/09 03:24:48;;;;;;;0.10;0.10;;;;;;;12.38;100.00;100472.69;4999628;28;20082;-80
2022/11/09 03:27:14;;;;;;;0.08;0.08;;;;;;;12.51;100.00;100496.66;4997353;28;20033;-75
2022/11/09 03:29:39;;;;;;;0.10;0.10;;;;;;;12.40;100.00;100475.22;4995278;28;20468;-82
2022/11/09 03:32:05;;;;;;;0.10;0.10;;;;;;;12.32;100.00;100483.16;4980766;28;20489;-78
2022/11/09 03:34:31;;;;;;;0.10;0.10;;;;;;;12.44;100.00;100492.81;4998032;28;20170;-79
2022/11/09 03:36:56;;;;;;;0.10;0.10;;;;;;;12.51;100.00;100493.09;4983556;28;20038;-75
2022/11/09 03:39:21;;;;;;;0.00;0.00;;;;;;;12.43;100.00;100478.50;4997597;28;20038;-78
2022/11/09 03:41:46;;;;;;;0.05;0.05;;;;;;;12.47;100.00;100495.22;5001206;28;20551;-76
2022/11/09 03:44:12;;;;;;;0.10;0.10;;;;;;;12.39;100.00;100485.16;4994077;28;20547;-77
2022/11/09 03:46:37;;;;;;;0.00;0.00;;;;;;;12.37;100.00;100478.19;5003011;28;20079;-76
2022/11/09 03:49:02;;;;;;;0.10;0.10;;;;;;;12.32;100.00;100473.25;4998708;28;20038;-76
2022/11/09 03:51:28;;;;;;;0.10;0.10;;;;;;;12.43;100.00;100512.66;4998638;28;20034;-76
2022/11/09 03:53:53;;;;;;;0.10;0.10;;;;;;;12.38;100.00;100510.38;4977150;28;22145;-75
2022/11/09 03:56:18;;;;;;;0.10;0.10;;;;;;;12.21;100.00;100503.81;4995245;28;20414;-74
2022/11/09 03:58:44;;;;;;;0.10;0.10;;;;;;;12.28;100.00;100509.50;5000734;28;20060;-74
2022/11/09 04:01:09;;;;;;;0.00;0.00;;;;;;;12.42;100.00;100524.41;4992348;28;20129;-79
2022/11/09 04:03:35;;;;;;;0.10;0.10;;;;;;;12.28;100.00;100542.66;4990083;28;20036;-78
2022/11/09 04:06:00;;;;;;;0.10;0.10;;;;;;;12.29;100.00;100536.31;4993631;28;20061;-76
2022/11/09 04:08:26;;;;;;;0.10;0.10;;;;;;;12.24;100.00;100535.84;4992721;28;20023;-74
2022/11/09 04:10:51;;;;;;;0.10;0.10;;;;;;;12.03;100.00;100527.03;4998120;28;20420;-76
2022/11/09 04:13:16;;;;;;;0.00;0.00;;;;;;;12.24;100.00;100548.44;4994779;28;20033;-74
2022/11/09 04:15:42;;;;;;;0.08;0.08;;;;;;;12.18;100.00;100546.34;4994643;28;20128;-76
2022/11/09 04:18:11;;;;;;;0.00;0.00;;;;;;;12.14;100.00;100540.34;4996932;28;20292;-80
2022/11/09 04:20:36;;;;;;;0.10;0.10;;;;;;;11.90;100.00;100511.91;4999185;28;20394;-77
2022/11/09 04:23:03;;;;;;;0.00;0.00;;;;;;;12.12;100.00;100555.78;4997606;28;20022;-78
2022/11/09 04:25:31;;;;;;;0.10;0.10;;;;;;;11.95;100.00;100541.09;4998897;28;20033;-75
2022/11/09 04:27:57;;;;;;;0.00;0.00;;;;;;;12.08;100.00;100557.91;4983841;28;20030;-79
2022/11/09 04:30:26;;;;;;;0.10;0.10;;;;;;;12.11;100.00;100549.56;5000183;28;20491;-75
2022/11/09 04:32:52;;;;;;;0.08;0.08;;;;;;;12.12;100.00;100563.84;5000514;28;20377;-78
2022/11/09 04:35:17;;;;;;;0.10;0.10;;;;;;;11.89;100.00;100564.03;5000415;28;20033;-76
2022/11/09 04:37:42;;;;;;;0.10;0.10;;;;;;;11.82;100.00;100530.56;4997947;28;20026;-77
2022/11/09 04:40:08;;;;;;;0.10;0.10;;;;;;;11.52;100.00;100554.66;4999325;28;20148;-76
2022/11/09 04:42:34;;;;;;;0.10;0.10;;;;;;;11.63;100.00;100559.09;5002649;28;20029;-77
2022/11/09 04:44:59;;;;;;;0.00;0.00;;;;;;;11.61;100.00;100563.75;5001709;28;20029;-76
2022/11/09 04:47:24;;;;;;;0.00;0.00;;;;;;;11.33;100.00;100541.09;4994535;28;20595;-75
2022/11/09 04:49:50;;;;;;;0.00;0.00;;;;;;;11.56;100.00;100549.84;4977743;28;20034;-79
2022/11/09 04:52:15;;;;;;;0.00;0.00;;;;;;;11.58;100.00;100550.56;4992358;28;20045;-79
2022/11/09 04:54:40;;;;;;;0.10;0.10;;;;;;;11.69;100.00;100550.50;5003203;28;20030;-75
2022/11/09 04:57:05;;;;;;;0.00;0.00;;;;;;;11.69;100.00;100557.69;4994415;28;20120;-75
2022/11/09 04:59:31;;;;;;;0.10;0.10;;;;;;;11.68;100.00;100556.84;5004798;28;20391;-76
2022/11/09 05:01:56;;;;;;;0.00;0.00;;;;;;;11.77;100.00;100540.91;4998365;28;20099;-75
2022/11/09 05:04:21;;;;;;;0.10;0.10;;;;;;;11.83;100.00;100540.34;4998753;28;20109;-78
2022/11/09 05:06:47;;;;;;;0.10;0.10;;;;;;;11.88;100.00;100566.84;4996163;28;20026;-76
2022/11/09 05:09:12;;;;;;;0.10;0.10;;;;;;;11.64;100.00;100565.34;4997671;28;20691;-81
2022/11/09 05:11:37;;;;;;;0.10;0.10;;;;;;;11.38;100.00;100544.25;4997611;28;20046;-76
2022/11/09 05:14:03;;;;;;;0.10;0.10;;;;;;;11.44;100.00;100553.59;4998404;28;20075;-80
2022/11/09 05:16:29;;;;;;;0.10;0.10;;;;;;;11.32;100.00;100542.91;4995835;28;20084;-73
2022/11/09 05:18:54;;;;;;;0.10;0.10;;;;;;;11.47;100.00;100564.94;4986042;28;20034;-77
2022/11/09 05:21:20;;;;;;;0.00;0.00;;;;;;;11.31;100.00;100551.13;4994277;28;20519;-76
2022/11/09 05:23:58;;;;;;;0.10;0.10;;;;;;;11.13;100.00;100540.09;5004549;28;20034;-79
2022/11/09 05:26:25;;;;;;;0.00;0.00;;;;;;;11.00;100.00;100525.00;4995313;28;20415;-75
2022/11/09 05:28:51;;;;;;;0.10;0.10;;;;;;;11.20;100.00;100542.13;5003449;28;20282;-75
2022/11/09 05:31:16;;;;;;;0.00;0.00;;;;;;;11.27;100.00;100549.66;4993924;28;20396;-73
2022/11/09 05:33:42;;;;;;;0.10;0.10;;;;;;;11.09;100.00;100553.78;5002027;28;20034;-75
2022/11/09 05:36:07;;;;;;;0.10;0.10;;;;;;;10.95;100.00;100544.22;4996213;28;20037;-80
2022/11/09 05:38:32;;;;;;;0.00;0.00;;;;;;;11.31;100.00;100559.19;4986362;28;20171;-75
2022/11/09 05:40:58;;;;;;;0.10;0.10;;;;;;;11.06;100.00;100546.00;5002705;28;20544;-76
2022/11/09 05:43:23;;;;;;;0.10;0.10;;;;;;;11.05;100.00;100544.28;4989174;28;20065;-80
2022/11/09 05:45:48;;;;;;;0.10;0.10;;;;;;;11.34;100.00;100570.50;4997729;28;20029;-78
2022/11/09 05:48:15;;;;;;;0.10;0.10;;;;;;;11.05;100.00;100543.44;4982166;28;20038;-81
2022/11/09 05:50:41;;;;;;;0.10;0.10;;;;;;;11.11;100.00;100556.38;5004320;28;20026;-82
2022/11/09 05:53:07;;;;;;;0.10;0.10;;;;;;;10.93;100.00;100530.06;4990148;28;20068;-78
2022/11/09 05:55:32;;;;;;;0.10;0.10;;;;;;;11.29;100.00;100570.03;5005053;28;20057;-77
2022/11/09 05:57:57;;;;;;;0.10;0.10;;;;;;;10.97;100.00;100536.03;4987645;28;20076;-78
2022/11/09 06:00:23;;;;;;;0.10;0.10;;;;;;;10.93;100.00;100559.59;5003648;28;20121;-77
2022/11/09 06:02:48;;;;;;;0.10;0.10;;;;;;;10.90;100.00;100543.75;4989011;28;20026;-82
2022/11/09 06:05:15;;;;;;;0.10;0.10;;;;;;;11.02;100.00;100565.19;5004615;28;20567;-80
2022/11/09 06:07:40;;;;;;;0.10;0.10;;;;;;;11.06;100.00;100563.97;5000451;28;20475;-79
2022/11/09 06:10:06;;;;;;;0.10;0.10;;;;;;;10.99;100.00;100554.69;5000413;28;20034;-78
2022/11/09 06:12:32;;;;;;;0.10;0.10;;;;;;;10.92;100.00;100562.44;5001734;28;20476;-79
2022/11/09 06:14:57;;;;;;;0.10;0.10;;;;;;;10.89;100.00;100576.94;5006091;28;20033;-80
2022/11/09 06:17:22;;;;;;;0.10;0.10;;;;;;;10.58;100.00;100546.44;5001779;28;20520;-80
2022/11/09 06:19:47;;;;;;;0.10;0.10;;;;;;;10.53;100.00;100544.13;4987011;28;20331;-79
2022/11/09 06:22:13;;;;;;;0.10;0.10;;;;;;;10.65;100.00;100559.22;4988911;28;20064;-77
2022/11/09 06:24:38;;;;;;;0.10;0.10;;;;;;;10.67;100.00;100579.72;5002832;28;20033;-77
2022/11/09 06:27:03;;;;;;;0.10;0.10;;;;;;;10.69;100.00;100567.03;5003453;28;20037;-78
2022/11/09 06:29:29;;;;;;;0.10;0.10;;;;;;;10.61;100.00;100570.34;4986015;28;20026;-76
2022/11/09 06:31:54;;;;;;;0.10;0.10;;;;;;;10.74;100.00;100592.50;4999695;28;20437;-80
2022/11/09 06:34:20;;;;;;;0.10;0.10;;;;;;;10.66;100.00;100573.50;4998346;28;20073;-75
2022/11/09 06:36:45;;;;;;;0.10;0.10;;;;;;;10.67;100.00;100577.03;5000432;28;20030;-85
2022/11/09 06:39:10;;;;;;;0.10;0.10;;;;;;;10.53;100.00;100597.81;4980334;28;20474;-76
2022/11/09 06:41:35;;;;;;;0.10;0.10;;;;;;;10.23;100.00;100555.50;4997447;28;20032;-76
2022/11/09 06:44:01;;;;;;;0.10;0.10;;;;;;;10.40;100.00;100563.09;5003481;28;20444;-83
2022/11/09 06:46:26;;;;;;;0.10;0.10;;;;;;;10.65;100.00;100587.91;5009348;28;20029;-80
2022/11/09 06:48:52;;;;;;;0.10;0.10;;;;;;;10.31;100.00;100574.53;4997906;28;20032;-79
2022/11/09 06:51:17;;;;;;;0.10;0.10;;;;;;;10.40;100.00;100608.72;4995688;28;20056;-80
2022/11/09 06:53:42;;;;;;;0.10;0.10;;;;;;;10.06;100.00;100569.28;4987722;28;20030;-82
2022/11/09 06:56:08;;;;;;;0.10;0.10;;;;;;;10.05;100.00;100583.72;4986326;28;20065;-83
2022/11/09 06:58:34;;;;;;;0.10;0.10;;;;;;;10.37;100.00;100611.59;4986094;28;20384;-75
2022/11/09 07:01:05;;;;;;;0.10;0.10;;;;;;;10.52;100.00;100612.22;4996325;28;20468;-75
2022/11/09 07:03:31;;;;;;;0.00;0.00;;;;;;;10.27;100.00;100608.81;4987055;28;20040;-81
2022/11/09 07:05:56;;;;;;;0.10;0.10;;;;;;;10.27;100.00;100598.06;4996385;28;20037;-78
2022/11/09 07:08:21;;;;;;;0.10;0.10;;;;;;;10.26;100.00;100593.69;4997123;28;20069;-76
2022/11/09 07:10:47;;;;;;;0.10;0.10;;;;;;;10.27;100.00;100613.31;5004937;28;20029;-78
2022/11/09 07:13:12;;;;;;;0.10;0.10;;;;;;;10.05;100.00;100602.50;4985178;28;20072;-78
2022/11/09 07:15:38;;;;;;;0.10;0.10;;;;;;;10.09;100.00;100615.63;5000246;28;20403;-79
2022/11/09 07:18:05;;;;;;;0.10;0.10;;;;;;;10.10;100.00;100601.25;4994554;28;20131;-79
2022/11/09 07:20:31;;;;;;;0.10;0.10;;;;;;;10.26;100.00;100617.84;4999334;28;20464;-78
2022/11/09 07:22:56;;;;;;;0.10;0.10;;;;;;;10.19;100.00;100628.22;4984645;28;20033;-78
2022/11/09 07:25:23;;;;;;;0.10;0.10;;;;;;;10.38;100.00;100624.03;5002471;28;20492;-75
2022/11/09 07:27:49;;;;;;;0.10;0.10;;;;;;;10.25;100.00;100618.81;4984198;28;20029;-77
2022/11/09 07:30:15;;;;;;;0.10;0.10;;;;;;;10.55;100.00;100630.78;4985367;28;20033;-77
2022/11/09 07:32:40;;;;;;;0.10;0.10;;;;;;;10.56;100.00;100642.34;4981448;28;20058;-78
2022/11/09 07:35:07;;;;;;;0.10;0.10;;;;;;;10.57;100.00;100614.53;4982119;28;20464;-84
2022/11/09 07:37:32;;;;;;;0.10;0.10;;;;;;;10.80;100.00;100626.06;4998823;28;20525;-76
2022/11/09 07:39:58;;;;;;;0.10;0.10;;;;;;;10.80;100.00;100642.19;4983338;28;20034;-80
2022/11/09 07:42:23;;;;;;;0.10;0.10;;;;;;;11.02;100.00;100629.66;4994267;28;20381;-73
2022/11/09 07:44:49;;;;;;;0.10;0.10;;;;;;;11.20;100.00;100632.66;5002751;28;20065;-73
2022/11/09 07:47:17;;;;;;;0.10;0.10;;;;;;;11.03;100.00;100639.44;4985018;28;20446;-74
2022/11/09 07:49:43;;;;;;;0.10;0.10;;;;;;;11.05;100.00;100635.63;5000172;28;20172;-72
2022/11/09 07:52:08;;;;;;;0.10;0.10;;;;;;;11.09;100.00;100628.19;5002491;28;20555;-76
2022/11/09 07:54:33;;;;;;;0.10;0.10;;;;;;;11.23;100.00;100643.16;4995343;28;20033;-78
2022/11/09 07:56:59;;;;;;;0.10;0.10;;;;;;;11.16;100.00;100621.28;4985365;28;20061;-73
2022/11/09 07:59:24;;;;;;;0.10;0.10;;;;;;;11.09;100.00;100629.03;4998583;28;20355;-74
2022/11/09 08:01:49;;;;;;;0.10;0.10;;;;;;;11.22;100.00;100628.84;4993304;28;20061;-74
2022/11/09 08:04:15;;;;;;;0.10;0.10;;;;;;;11.29;100.00;100637.25;4981055;28;20060;-77
2022/11/09 08:06:40;;;;;;;0.10;0.10;;;;;;;11.18;100.00;100642.69;4997580;28;20472;-74
2022/11/09 08:09:05;;;;;;;0.10;0.10;;;;;;;11.32;100.00;100645.03;4999644;28;20056;-76
2022/11/09 08:11:30;;;;;;;0.10;0.10;;;;;;;11.23;100.00;100619.81;4979463;28;20483;-75
2022/11/09 08:13:56;;;;;;;0.10;0.10;;;;;;;11.40;100.00;100644.41;4999803;28;20033;-73
2022/11/09 08:16:21;;;;;;;0.10;0.10;;;;;;;11.47;100.00;100661.72;4996334;28;21032;-72
2022/11/09 08:18:48;;;;;;;0.10;0.10;;;;;;;11.39;100.00;100640.88;4999446;28;20058;-74
2022/11/09 08:21:14;;;;;;;0.10;0.10;;;;;;;11.30;100.00;100640.78;5003686;28;20037;-75
2022/11/09 08:23:39;;;;;;;0.08;0.08;;;;;;;11.45;100.00;100661.00;5000354;28;20034;-75
2022/11/09 08:26:05;;;;;;;0.10;0.10;;;;;;;11.65;100.00;100670.06;5003330;28;20441;-75
2022/11/09 08:28:31;;;;;;;0.10;0.10;;;;;;;11.58;100.00;100686.84;4992524;28;21233;-75
2022/11/09 08:30:58;;;;;;;0.10;0.10;;;;;;;11.76;100.00;100671.84;4993868;28;20457;-72
2022/11/09 08:33:26;;;;;;;0.10;0.10;;;;;;;11.57;100.00;100694.06;4999350;28;20503;-74
2022/11/09 08:35:51;;;;;;;0.10;0.10;;;;;;;11.66;100.00;100693.28;5000867;28;20551;-73
2022/11/09 08:38:16;;;;;;;0.10;0.10;;;;;;;11.53;100.00;100680.03;4994148;28;20554;-76
2022/11/09 08:40:42;;;;;;;0.10;0.10;;;;;;;11.72;100.00;100680.31;4985256;28;20399;-73
2022/11/09 08:43:09;;;;;;;0.10;0.10;;;;;;;11.76;100.00;100661.06;4996012;28;20030;-74
2022/11/09 08:45:36;;;;;;;0.10;0.10;;;;;;;11.97;100.00;100674.53;5000796;28;20034;-76
2022/11/09 08:48:02;;;;;;;0.10;0.10;;;;;;;12.30;100.00;100691.44;4997017;28;20034;-74
2022/11/09 08:50:29;;;;;;;0.10;0.10;;;;;;;12.14;100.00;100683.84;5000053;28;20029;-74
2022/11/09 08:52:54;;;;;;;0.08;0.08;;;;;;;12.05;100.00;100659.59;5002066;28;20494;-77
2022/11/09 08:55:20;;;;;;;0.10;0.10;;;;;;;12.02;100.00;100684.91;4985555;28;20037;-75
2022/11/09 08:57:46;;;;;;;0.10;0.10;;;;;;;12.21;100.00;100688.69;4985469;28;20045;-72
2022/11/09 09:00:11;;;;;;;0.10;0.10;;;;;;;12.37;100.00;100686.38;4997836;28;20034;-72
2022/11/09 09:02:37;;;;;;;0.10;0.10;;;;;;;12.26;100.00;100681.06;4990460;28;20065;-76
2022/11/09 09:05:03;;;;;;;0.10;0.10;;;;;;;12.35;100.00;100674.00;4986563;28;20049;-75
2022/11/09 09:07:28;;;;;;;0.10;0.10;;;;;;;12.52;100.00;100694.06;5001061;28;20109;-74
2022/11/09 09:09:53;;;;;;;0.10;0.10;;;;;;;12.49;100.00;100678.16;5000032;28;20029;-74
2022/11/09 09:12:19;;;;;;;0.00;0.00;;;;;;;12.43;100.00;100688.53;4983538;28;20057;-75
2022/11/09 09:14:44;;;;;;;0.10;0.10;;;;;;;12.58;100.00;100680.91;5003257;28;20109;-75
2022/11/09 09:17:10;;;;;;;0.10;0.10;;;;;;;12.60;100.00;100684.31;5003710;28;20374;-74
2022/11/09 09:19:35;;;;;;;0.10;0.10;;;;;;;12.59;100.00;100690.69;4980213;28;20399;-74
2022/11/09 09:22:00;;;;;;;0.10;0.10;;;;;;;12.71;100.00;100683.34;4998517;28;20046;-74
2022/11/09 09:24:26;;;;;;;0.10;0.10;;;;;;;12.95;100.00;100687.53;4994706;28;20108;-78
2022/11/09 09:26:51;;;;;;;0.10;0.10;;;;;;;13.22;100.00;100699.50;4998812;28;20033;-79
2022/11/09 09:29:17;;;;;;;0.10;0.10;;;;;;;13.17;100.00;100704.44;4980430;28;20033;-76
2022/11/09 09:31:42;;;;;;;0.00;0.00;;;;;;;13.38;100.00;100696.22;4998119;28;20372;-72
2022/11/09 09:34:07;;;;;;;0.00;0.00;;;;;;;13.55;100.00;100691.16;4998283;28;20033;-75
2022/11/09 09:36:34;;;;;;;0.10;0.10;;;;;;;13.20;100.00;100671.81;4996577;28;22024;-72
2022/11/09 09:38:59;;;;;;;0.00;0.00;;;;;;;13.26;100.00;100711.69;4993900;28;20116;-75
2022/11/09 09:41:34;;;;;;;0.10;0.10;;;;;;;13.50;100.00;100708.63;4998837;28;20030;-77
2022/11/09 09:44:27;;;;;;;0.10;0.10;;;;;;;13.45;98.30;100704.66;4998130;28;20061;-79
2022/11/09 09:47:02;;;;;;;0.10;0.10;;;;;;;13.68;98.10;100693.56;4992688;28;20136;-74
2022/11/09 09:49:30;;;;;;;0.10;0.10;;;;;;;13.66;97.75;100712.56;4994037;28;20101;-75
2022/11/09 09:52:05;;;;;;;0.10;0.10;;;;;;;13.90;98.21;100677.06;4989980;28;20104;-75
2022/11/09 09:54:38;;;;;;;0.10;0.10;;;;;;;13.73;95.50;100732.59;4982924;28;20056;-75
2022/11/09 09:57:18;;;;;;;0.10;0.10;;;;;;;13.91;95.93;100712.97;4999289;28;20125;-73
2022/11/09 09:59:48;;;;;;;0.03;0.03;;;;;;;13.99;95.50;100717.66;5012044;28;20068;-71
2022/11/09 10:02:21;;;;;;;0.10;0.10;;;;;;;13.85;94.41;100702.78;4980451;28;20258;-78
2022/11/09 10:04:47;;;;;;;0.10;0.10;;;;;;;14.20;94.09;100728.25;5004612;28;20115;-74
2022/11/09 10:07:22;;;;;;;0.10;0.10;;;;;;;14.52;92.31;100700.00;5003140;28;20034;-72
2022/11/09 10:10:04;;;;;;;0.10;0.10;;;;;;;14.73;89.55;100724.13;5003164;28;20021;-77
2022/11/09 10:13:20;;;;;;;0.10;0.10;;;;;;;14.24;90.76;100724.28;5006427;28;20449;-77
2022/11/09 10:15:49;;;;;;;0.10;0.10;;;;;;;15.04;86.40;100731.94;5018343;28;20078;-77
2022/11/09 10:18:39;;;;;;;0.10;0.10;;;;;;;15.10;86.71;100733.19;5000502;28;20046;-75
2022/11/09 10:21:17;;;;;;;0.17;0.17;;;;;;;15.24;85.18;100742.63;5019616;28;20422;-75
2022/11/09 10:24:10;;;;;;;0.10;0.10;;;;;;;15.41;85.47;100730.97;4997301;28;20026;-75
2022/11/09 10:26:54;;;;;;;0.10;0.10;;;;;;;15.03;87.92;100727.53;4982421;28;20045;-75
2022/11/09 10:29:23;;;;;;;0.10;0.10;;;;;;;15.04;88.82;100729.22;5004947;28;20040;-75
2022/11/09 10:31:57;;;;;;;0.10;0.10;;;;;;;14.77;88.75;100733.66;5001119;28;20040;-74
2022/11/09 10:34:25;;;;;;;0.10;0.10;;;;;;;14.91;87.85;100737.69;5001164;28;20041;-74
2022/11/09 10:37:09;;;;;;;0.00;0.00;;;;;;;14.43;88.63;100746.84;4984771;28;20034;-73
2022/11/09 10:39:41;;;;;;;0.10;0.10;;;;;;;15.13;87.07;100744.53;4999387;28;20487;-77
2022/11/09 10:42:09;;;;;;;0.10;0.10;;;;;;;14.51;86.75;100717.22;5001702;28;20072;-78
2022/11/09 10:44:34;;;;;;;0.10;0.10;;;;;;;14.86;85.74;100712.97;5001736;28;20029;-75
2022/11/09 10:47:18;;;;;;;0.10;0.10;;;;;;;15.40;86.14;100734.66;5005079;28;20349;-73
2022/11/09 10:49:44;;;;;;;0.10;0.10;;;;;;;15.86;81.87;100750.00;5000781;28;20026;-71
2022/11/09 10:52:38;;;;;;;0.10;0.10;;;;;;;15.24;82.50;100729.09;4984203;28;20420;-77
2022/11/09 10:55:22;;;;;;;0.10;0.10;;;;;;;14.96;85.97;100753.47;4985708;28;20037;-76
2022/11/09 10:57:52;;;;;;;;;;;;;;;14.28;85.38;100755.41;5012953;28;20276;-75
2022/11/09 11:00:19;;;;;;;0.10;0.10;;;;;;;14.17;86.64;100742.91;5003397;28;19983;-74
2022/11/09 11:02:46;;;;;;;0.10;0.10;;;;;;;13.84;88.34;100731.59;5012464;28;20121;-78
2022/11/09 11:05:17;;;;;;;0.00;0.00;;;;;;;13.93;88.07;100754.16;4989669;28;20025;-73
2022/11/09 11:07:43;;;;;;;0.10;0.10;;;;;;;14.06;88.53;100752.03;5001801;28;20404;-74
2022/11/09 11:10:10;;;;;;;0.00;0.00;;;;;;;14.23;86.60;100749.56;4996161;28;20101;-77
2022/11/09 11:12:35;;;;;;;0.10;0.10;;;;;;;13.72;87.04;100730.06;4986278;28;20030;-74
2022/11/09 11:15:00;;;;;;;0.00;0.00;;;;;;;13.65;88.13;100748.63;5000077;28;20366;-76
2022/11/09 11:17:28;;;;;;;0.00;0.00;;;;;;;13.79;86.88;100761.72;5005019;28;20030;-78
2022/11/09 11:19:53;;;;;;;0.10;0.10;;;;;;;13.57;88.67;100754.75;4983892;28;20026;-75